createdAt,value
2018-01-07T00:01:16.432Z,3.00
2018-01-07T00:03:44.578Z,3.00
2018-01-07T00:06:12.865Z,3.00
2018-01-07T00:08:41.136Z,2.90
2018-01-07T00:11:09.919Z,2.90
2018-01-07T00:13:37.949Z,2.90
2018-01-07T00:16:06.616Z,2.90
2018-01-07T00:18:34.610Z,2.90
2018-01-07T00:21:03.803Z,2.80
2018-01-07T00:23:32.543Z,2.80
2018-01-07T00:26:01.086Z,2.80
2018-01-07T00:28:28.894Z,2.80
2018-01-07T00:30:57.556Z,2.90
2018-01-07T00:33:26.029Z,2.90
2018-01-07T00:35:54.315Z,2.90
2018-01-07T00:38:22.470Z,2.90
2018-01-07T00:40:51.671Z,2.90
2018-01-07T00:43:20.245Z,2.80
2018-01-07T00:45:48.216Z,2.70
2018-01-07T00:48:17.019Z,2.80
2018-01-07T00:50:45.815Z,2.80
2018-01-07T00:53:13.969Z,2.80
2018-01-07T00:55:42.459Z,2.80
2018-01-07T00:58:11.199Z,2.70
2018-01-07T01:00:38.978Z,2.70
2018-01-07T01:03:08.016Z,2.70
2018-01-07T01:05:36.659Z,2.60
2018-01-07T01:08:05.474Z,2.60
2018-01-07T01:10:34.665Z,2.60
2018-01-07T01:13:02.722Z,2.50
2018-01-07T01:15:31.459Z,2.60
2018-01-07T01:18:00.531Z,2.60
2018-01-07T01:20:28.653Z,2.50
2018-01-07T01:22:56.374Z,2.60
2018-01-07T01:25:25.570Z,2.70
2018-01-07T01:27:55.457Z,2.80
2018-01-07T01:30:23.968Z,2.70
2018-01-07T01:32:52.181Z,2.80
2018-01-07T01:35:20.734Z,2.80
2018-01-07T01:37:48.725Z,2.70
2018-01-07T01:40:16.508Z,2.50
2018-01-07T01:42:45.467Z,2.60
2018-01-07T01:45:13.485Z,2.60
2018-01-07T01:47:42.451Z,2.30
2018-01-07T01:50:11.221Z,2.30
2018-01-07T01:52:39.329Z,2.30
2018-01-07T01:55:08.292Z,2.30
2018-01-07T01:57:36.811Z,2.40
2018-01-07T02:00:04.753Z,2.40
2018-01-07T02:02:34.047Z,2.40
2018-01-07T02:05:02.216Z,2.40
2018-01-07T02:07:30.740Z,2.20
2018-01-07T02:09:59.096Z,2.20
2018-01-07T02:12:28.780Z,2.40
2018-01-07T02:14:57.307Z,2.30
2018-01-07T02:17:25.920Z,2.40
2018-01-07T02:19:54.502Z,2.30
2018-01-07T02:22:23.527Z,2.20
2018-01-07T02:24:52.500Z,2.20
2018-01-07T02:27:21.661Z,2.20
2018-01-07T02:29:49.810Z,2.10
2018-01-07T02:32:18.738Z,2.20
2018-01-07T02:34:47.274Z,2.20
2018-01-07T02:37:16.052Z,2.30
2018-01-07T02:39:45.244Z,2.30
2018-01-07T02:42:13.555Z,2.20
2018-01-07T02:44:42.565Z,2.20
2018-01-07T02:47:10.352Z,2.20
2018-01-07T02:49:38.330Z,2.20
2018-01-07T02:52:07.825Z,2.20
2018-01-07T02:54:35.775Z,2.20
2018-01-07T02:57:04.155Z,2.20
2018-01-07T02:59:33.164Z,2.10
2018-01-07T03:02:01.239Z,2.10
2018-01-07T03:04:29.012Z,2.10
2018-01-07T03:06:57.719Z,2.10
2018-01-07T03:09:26.374Z,2.10
2018-01-07T03:11:55.658Z,2.10
2018-01-07T03:14:24.352Z,2.00
2018-01-07T03:16:53.097Z,1.90
2018-01-07T03:19:21.958Z,1.70
2018-01-07T03:21:50.827Z,1.60
2018-01-07T03:24:19.511Z,1.60
2018-01-07T03:26:48.315Z,1.60
2018-01-07T03:29:16.274Z,1.60
2018-01-07T03:31:44.707Z,1.50
2018-01-07T03:34:13.015Z,1.60
2018-01-07T03:36:40.892Z,1.50
2018-01-07T03:39:08.988Z,1.50
2018-01-07T03:41:36.788Z,1.60
2018-01-07T03:44:05.533Z,1.70
2018-01-07T03:46:33.693Z,1.70
2018-01-07T03:49:02.450Z,1.90
2018-01-07T03:51:31.744Z,1.90
2018-01-07T03:54:00.831Z,1.90
2018-01-07T03:56:29.028Z,1.90
2018-01-07T03:58:57.968Z,1.80
2018-01-07T04:01:26.485Z,1.70
2018-01-07T04:03:56.473Z,1.60
2018-01-07T04:06:25.098Z,1.60
2018-01-07T04:08:54.229Z,1.70
2018-01-07T04:11:22.668Z,1.60
2018-01-07T04:13:50.602Z,1.70
2018-01-07T04:16:20.025Z,1.60
2018-01-07T04:18:48.292Z,1.50
2018-01-07T04:21:17.321Z,1.50
2018-01-07T04:23:45.310Z,1.50
2018-01-07T04:26:13.285Z,1.50
2018-01-07T04:28:41.354Z,1.40
2018-01-07T04:31:09.426Z,1.40
2018-01-07T04:33:37.667Z,1.40
2018-01-07T04:36:05.697Z,1.50
2018-01-07T04:38:33.993Z,1.40
2018-01-07T04:41:03.161Z,1.10
2018-01-07T04:43:31.067Z,1.10
2018-01-07T04:45:59.002Z,1.10
2018-01-07T04:48:28.223Z,1.00
2018-01-07T04:50:57.375Z,1.00
2018-01-07T04:53:25.378Z,1.00
2018-01-07T04:55:54.293Z,1.00
2018-01-07T04:58:22.497Z,1.00
2018-01-07T05:00:51.370Z,1.10
2018-01-07T05:03:19.779Z,1.20
2018-01-07T05:05:48.252Z,1.30
2018-01-07T05:08:16.187Z,1.30
2018-01-07T05:10:45.239Z,1.40
2018-01-07T05:13:13.999Z,1.20
2018-01-07T05:18:17.048Z,1.30
2018-01-07T05:20:46.128Z,1.50
2018-01-07T05:23:14.884Z,1.50
2018-01-07T05:25:43.569Z,1.50
2018-01-07T05:28:12.465Z,1.50
2018-01-07T05:30:41.591Z,1.70
2018-01-07T05:33:11.018Z,1.70
2018-01-07T05:35:39.440Z,1.90
2018-01-07T05:38:08.381Z,2.00
2018-01-07T05:40:38.136Z,2.00
2018-01-07T05:43:05.927Z,2.00
2018-01-07T05:45:34.842Z,1.90
2018-01-07T05:48:03.571Z,1.80
2018-01-07T05:50:33.062Z,1.70
2018-01-07T05:53:02.043Z,1.70
2018-01-07T05:55:30.070Z,1.90
2018-01-07T05:57:58.134Z,2.00
2018-01-07T06:00:26.105Z,2.00
2018-01-07T06:02:53.826Z,2.00
2018-01-07T06:05:22.518Z,1.90
2018-01-07T06:07:50.705Z,1.90
2018-01-07T06:10:18.725Z,2.00
2018-01-07T06:12:47.220Z,2.30
2018-01-07T06:15:14.952Z,2.30
2018-01-07T06:17:44.341Z,2.60
2018-01-07T06:20:13.609Z,2.70
2018-01-07T06:22:42.720Z,2.70
2018-01-07T06:25:10.618Z,2.80
2018-01-07T06:27:39.063Z,3.00
2018-01-07T06:30:07.448Z,3.00
2018-01-07T06:32:35.528Z,3.10
2018-01-07T06:35:04.496Z,3.20
2018-01-07T06:37:33.380Z,3.30
2018-01-07T06:40:01.356Z,3.30
2018-01-07T06:42:29.121Z,3.40
2018-01-07T06:44:57.921Z,3.70
2018-01-07T06:47:25.925Z,3.70
2018-01-07T06:49:54.369Z,3.80
2018-01-07T06:52:22.588Z,3.90
2018-01-07T06:54:52.297Z,4.50
2018-01-07T06:57:20.942Z,4.50
2018-01-07T06:59:49.838Z,4.50
2018-01-07T07:02:18.677Z,4.60
2018-01-07T07:04:46.390Z,4.60
2018-01-07T07:07:14.651Z,4.70
2018-01-07T07:09:43.170Z,4.80
2018-01-07T07:12:11.924Z,4.90
2018-01-07T07:14:40.078Z,4.90
2018-01-07T07:17:08.226Z,4.90
2018-01-07T07:19:35.948Z,5.00
2018-01-07T07:22:04.648Z,5.00
2018-01-07T07:24:33.359Z,5.10
2018-01-07T07:27:02.545Z,5.20
2018-01-07T07:29:31.486Z,5.10
2018-01-07T07:31:59.539Z,5.10
2018-01-07T07:34:27.844Z,5.20
2018-01-07T07:36:56.588Z,5.30
2018-01-07T07:39:25.418Z,5.30
2018-01-07T07:41:53.925Z,5.40
2018-01-07T07:44:22.395Z,5.40
2018-01-07T07:46:50.884Z,5.40
2018-01-07T07:49:18.909Z,5.40
2018-01-07T07:51:47.627Z,5.40
2018-01-07T07:54:15.882Z,5.40
2018-01-07T07:56:44.963Z,5.50
2018-01-07T07:59:13.176Z,5.50
2018-01-07T08:01:41.298Z,5.60
2018-01-07T08:04:09.599Z,5.70
2018-01-07T08:06:37.891Z,5.70
2018-01-07T08:09:05.586Z,5.80
2018-01-07T08:11:34.652Z,5.90
2018-01-07T08:14:02.979Z,5.90
2018-01-07T08:16:30.637Z,5.90
2018-01-07T08:18:59.182Z,5.90
2018-01-07T08:21:26.928Z,6.00
2018-01-07T08:23:54.856Z,6.00
2018-01-07T08:26:23.198Z,6.10
2018-01-07T08:28:51.629Z,6.20
2018-01-07T08:31:19.736Z,6.30
2018-01-07T08:33:49.356Z,6.30
2018-01-07T08:36:17.289Z,6.30
2018-01-07T08:38:45.509Z,6.40
2018-01-07T08:41:14.328Z,6.40
2018-01-07T08:43:42.521Z,6.40
2018-01-07T08:46:10.700Z,6.40
2018-01-07T08:48:39.750Z,6.60
2018-01-07T08:51:09.080Z,6.60
2018-01-07T08:53:37.182Z,6.60
2018-01-07T08:56:05.111Z,6.60
2018-01-07T08:58:34.400Z,6.60
2018-01-07T09:01:03.300Z,6.60
2018-01-07T09:03:31.392Z,6.60
2018-01-07T09:05:59.870Z,6.70
2018-01-07T09:08:28.378Z,6.70
2018-01-07T09:10:57.193Z,6.70
2018-01-07T09:13:26.526Z,6.70
2018-01-07T09:15:55.549Z,6.80
2018-01-07T09:18:23.299Z,6.70
2018-01-07T09:20:51.249Z,6.80
2018-01-07T09:23:20.094Z,6.80
2018-01-07T09:25:47.956Z,6.80
2018-01-07T09:28:15.966Z,6.80
2018-01-07T09:30:45.039Z,6.80
2018-01-07T09:33:13.495Z,6.80
2018-01-07T09:35:42.870Z,6.80
2018-01-07T09:38:10.868Z,6.80
2018-01-07T09:40:39.172Z,6.80
2018-01-07T09:43:08.048Z,6.80
2018-01-07T09:45:36.258Z,6.80
2018-01-07T09:48:04.748Z,6.70
2018-01-07T09:50:33.550Z,6.80
2018-01-07T09:53:01.446Z,6.80
2018-01-07T09:55:29.341Z,6.80
2018-01-07T09:57:57.925Z,6.80
2018-01-07T10:00:26.593Z,6.80
2018-01-07T10:02:54.344Z,6.80
2018-01-07T10:05:22.529Z,6.80
2018-01-07T10:07:50.467Z,6.70
2018-01-07T10:10:18.543Z,6.70
2018-01-07T10:12:47.288Z,6.70
2018-01-07T10:15:14.995Z,6.70
2018-01-07T10:17:43.952Z,6.60
2018-01-07T10:20:13.162Z,6.70
2018-01-07T10:22:41.391Z,6.70
2018-01-07T10:25:09.954Z,6.70
2018-01-07T10:27:38.579Z,6.70
2018-01-07T10:30:06.400Z,6.70
2018-01-07T10:32:34.132Z,6.70
2018-01-07T10:35:02.185Z,6.70
2018-01-07T10:37:30.887Z,6.70
2018-01-07T10:39:59.057Z,6.70
2018-01-07T10:42:26.886Z,6.70
2018-01-07T10:44:55.701Z,6.70
2018-01-07T10:47:23.970Z,6.70
2018-01-07T10:49:51.783Z,6.70
2018-01-07T10:52:20.877Z,6.80
2018-01-07T10:54:49.286Z,6.80
2018-01-07T10:57:18.291Z,6.90
2018-01-07T10:59:46.487Z,6.80
2018-01-07T11:02:20.400Z,6.80
2018-01-07T11:04:48.600Z,6.90
2018-01-07T11:07:17.467Z,6.90
2018-01-07T11:09:45.885Z,6.90
2018-01-07T11:12:14.827Z,6.90
2018-01-07T11:14:43.068Z,6.90
2018-01-07T11:17:12.165Z,7.00
2018-01-07T11:19:41.160Z,7.10
2018-01-07T11:22:10.095Z,7.00
2018-01-07T11:24:38.022Z,7.00
2018-01-07T11:27:06.656Z,7.10
2018-01-07T11:29:34.429Z,7.10
2018-01-07T11:32:02.667Z,7.10
2018-01-07T11:34:31.457Z,7.10
2018-01-07T11:36:59.491Z,7.10
2018-01-07T11:39:28.752Z,7.20
2018-01-07T11:41:56.476Z,7.10
2018-01-07T11:44:25.444Z,7.10
2018-01-07T11:46:54.422Z,7.10
2018-01-07T11:49:22.657Z,7.10
2018-01-07T11:51:50.535Z,7.10
2018-01-07T11:54:18.510Z,7.10
2018-01-07T11:56:46.697Z,7.10
2018-01-07T11:59:14.804Z,7.10
2018-01-07T12:01:43.576Z,7.10
2018-01-07T12:04:12.335Z,7.10
2018-01-07T12:06:40.600Z,7.10
2018-01-07T12:09:08.619Z,7.10
2018-01-07T12:11:37.364Z,7.10
2018-01-07T12:14:06.112Z,7.10
2018-01-07T12:16:35.039Z,7.10
2018-01-07T12:19:03.076Z,7.20
2018-01-07T12:21:31.192Z,7.20
2018-01-07T12:23:59.369Z,7.10
2018-01-07T12:26:27.539Z,7.10
2018-01-07T12:28:56.353Z,7.00
2018-01-07T12:31:25.427Z,7.00
2018-01-07T12:33:53.486Z,7.00
2018-01-07T12:36:21.609Z,7.00
2018-01-07T12:38:50.560Z,7.00
2018-01-07T12:41:19.671Z,6.90
2018-01-07T12:43:48.286Z,6.90
2018-01-07T12:46:16.704Z,6.90
2018-01-07T12:48:45.485Z,6.90
2018-01-07T12:51:13.361Z,6.90
2018-01-07T12:53:41.724Z,6.90
2018-01-07T12:56:09.746Z,6.90
2018-01-07T12:58:40.052Z,6.90
2018-01-07T13:01:08.284Z,6.90
2018-01-07T13:03:36.483Z,6.90
2018-01-07T13:06:04.573Z,6.90
2018-01-07T13:08:34.009Z,6.90
2018-01-07T13:11:02.957Z,6.90
2018-01-07T13:13:32.615Z,6.90
2018-01-07T13:16:01.905Z,6.90
2018-01-07T13:18:30.449Z,6.90
2018-01-07T13:20:58.354Z,6.90
2018-01-07T13:23:27.856Z,7.00
2018-01-07T13:25:57.300Z,7.00
2018-01-07T13:28:25.255Z,7.00
2018-01-07T13:30:54.664Z,7.00
2018-01-07T13:33:23.666Z,6.90
2018-01-07T13:35:52.912Z,7.00
2018-01-07T13:38:21.804Z,7.00
2018-01-07T13:40:51.478Z,7.00
2018-01-07T13:43:19.546Z,7.00
2018-01-07T13:45:48.496Z,6.90
2018-01-07T13:48:17.361Z,6.90
2018-01-07T13:50:46.389Z,6.90
2018-01-07T13:53:15.623Z,6.90
2018-01-07T13:55:45.614Z,6.80
2018-01-07T13:58:13.605Z,6.80
2018-01-07T14:00:41.564Z,6.80
2018-01-07T14:03:10.757Z,6.90
2018-01-07T14:05:38.679Z,6.90
2018-01-07T14:08:06.900Z,6.90
2018-01-07T14:10:35.142Z,6.90
2018-01-07T14:13:03.319Z,6.90
2018-01-07T14:15:32.494Z,6.90
2018-01-07T14:18:01.714Z,6.90
2018-01-07T14:20:29.418Z,6.90
2018-01-07T14:22:57.356Z,6.90
2018-01-07T14:25:25.105Z,6.90
2018-01-07T14:27:54.018Z,6.90
2018-01-07T14:30:22.860Z,6.90
2018-01-07T14:32:51.031Z,6.80
2018-01-07T14:35:19.832Z,6.90
2018-01-07T14:37:48.728Z,6.80
2018-01-07T14:40:17.649Z,6.90
2018-01-07T14:42:45.600Z,6.90
2018-01-07T14:45:14.564Z,6.90
2018-01-07T14:47:43.777Z,6.80
2018-01-07T14:50:13.101Z,6.80
2018-01-07T14:52:40.810Z,6.80
2018-01-07T14:55:08.773Z,6.80
2018-01-07T14:57:37.671Z,6.80
2018-01-07T15:00:06.682Z,6.80
2018-01-07T15:02:35.719Z,6.80
2018-01-07T15:05:04.394Z,6.80
2018-01-07T15:07:32.673Z,6.80
2018-01-07T15:10:00.656Z,6.80
2018-01-07T15:12:28.912Z,6.90
2018-01-07T15:14:56.863Z,6.90
2018-01-07T15:17:26.085Z,6.90
2018-01-07T15:19:54.703Z,6.90
2018-01-07T15:22:23.976Z,6.90
2018-01-07T15:24:52.782Z,6.90
2018-01-07T15:27:22.354Z,6.90
2018-01-07T15:29:51.219Z,6.90
2018-01-07T15:32:19.883Z,6.90
2018-01-07T15:34:48.750Z,6.90
2018-01-07T15:37:18.138Z,6.90
2018-01-07T15:39:45.889Z,6.90
2018-01-07T15:42:14.598Z,6.90
2018-01-07T15:44:43.829Z,6.90
2018-01-07T15:47:14.010Z,6.90
2018-01-07T15:49:42.741Z,6.90
2018-01-07T15:52:11.641Z,6.90
2018-01-07T15:54:40.806Z,6.90
2018-01-07T15:57:10.056Z,6.90
2018-01-07T15:59:37.981Z,6.90
2018-01-07T16:02:06.747Z,7.00
2018-01-07T16:04:35.705Z,7.00
2018-01-07T16:07:04.314Z,7.00
2018-01-07T16:09:34.160Z,6.90
2018-01-07T16:12:02.010Z,6.90
2018-01-07T16:14:30.529Z,6.90
2018-01-07T16:16:59.360Z,6.90
2018-01-07T16:19:28.658Z,6.90
2018-01-07T16:21:56.712Z,6.90
2018-01-07T16:24:24.767Z,6.90
2018-01-07T16:26:53.366Z,6.90
2018-01-07T16:29:22.651Z,6.90
2018-01-07T16:31:50.770Z,6.90
2018-01-07T16:34:19.046Z,6.90
2018-01-07T16:36:47.507Z,6.90
2018-01-07T16:39:16.528Z,6.90
2018-01-07T16:41:45.670Z,6.90
2018-01-07T16:44:14.011Z,6.80
2018-01-07T16:46:43.208Z,6.90
2018-01-07T16:49:11.483Z,6.80
2018-01-07T16:51:42.105Z,6.90
2018-01-07T16:54:10.084Z,6.90
2018-01-07T16:56:37.957Z,6.90
2018-01-07T16:59:06.847Z,6.90
2018-01-07T17:01:35.084Z,6.90
2018-01-07T17:04:03.300Z,6.90
2018-01-07T17:06:31.634Z,6.90
2018-01-07T17:08:59.766Z,6.90
2018-01-07T17:11:28.657Z,6.90
2018-01-07T17:13:57.574Z,6.90
2018-01-07T17:16:26.901Z,6.80
2018-01-07T17:18:55.814Z,6.90
2018-01-07T17:21:24.216Z,6.90
2018-01-07T17:23:52.864Z,6.90
2018-01-07T17:26:21.700Z,6.90
2018-01-07T17:28:50.937Z,6.90
2018-01-07T17:31:18.924Z,6.90
2018-01-07T17:33:49.723Z,6.90
2018-01-07T17:36:20.078Z,6.90
2018-01-07T17:38:50.148Z,6.90
2018-01-07T17:41:18.584Z,6.90
2018-01-07T17:43:48.057Z,6.90
2018-01-07T17:46:16.892Z,6.90
2018-01-07T17:48:47.180Z,6.90
2018-01-07T17:51:16.585Z,6.90
2018-01-07T17:53:45.360Z,7.00
2018-01-07T17:56:13.148Z,6.90
2018-01-07T17:58:42.310Z,6.90
2018-01-07T18:01:10.828Z,6.90
2018-01-07T18:03:38.649Z,6.90
2018-01-07T18:06:07.268Z,6.90
2018-01-07T18:08:36.143Z,6.90
2018-01-07T18:11:04.171Z,6.90
2018-01-07T18:13:33.452Z,7.00
2018-01-07T18:16:01.514Z,6.90
2018-01-07T18:18:29.400Z,6.90
2018-01-07T18:20:58.081Z,7.00
2018-01-07T18:23:27.304Z,6.90
2018-01-07T18:25:55.992Z,6.90
2018-01-07T18:28:25.234Z,6.90
2018-01-07T18:30:55.074Z,7.00
2018-01-07T18:33:23.736Z,7.00
2018-01-07T18:35:52.823Z,7.00
2018-01-07T18:38:21.210Z,7.00
2018-01-07T18:40:49.027Z,7.10
2018-01-07T18:43:18.981Z,7.00
2018-01-07T18:45:47.248Z,7.00
2018-01-07T18:48:16.720Z,7.00
2018-01-07T18:50:49.509Z,7.00
2018-01-07T18:53:21.792Z,7.00
2018-01-07T18:55:54.709Z,7.10
2018-01-07T18:58:27.047Z,7.10
2018-01-07T19:00:57.487Z,7.10
2018-01-07T19:03:30.057Z,7.20
2018-01-07T19:06:01.310Z,7.10
2018-01-07T19:08:33.958Z,7.20
2018-01-07T19:11:05.138Z,7.20
2018-01-07T19:13:37.024Z,7.20
2018-01-07T19:16:07.736Z,7.20
2018-01-07T19:18:38.531Z,7.20
2018-01-07T19:21:09.432Z,7.30
2018-01-07T19:23:40.346Z,7.30
2018-01-07T19:26:11.729Z,7.20
2018-01-07T19:28:43.235Z,7.20
2018-01-07T19:31:12.661Z,7.20
2018-01-07T19:33:45.960Z,7.30
2018-01-07T19:36:17.272Z,7.20
2018-01-07T19:38:47.427Z,7.20
2018-01-07T19:41:20.721Z,7.20
2018-01-07T19:43:52.056Z,7.20
2018-01-07T19:46:24.218Z,7.20
2018-01-07T19:48:56.015Z,7.20
2018-01-07T19:51:25.972Z,7.20
2018-01-07T19:53:56.796Z,7.20
2018-01-07T19:56:27.705Z,7.20
2018-01-07T19:58:58.265Z,7.20
2018-01-07T20:01:29.376Z,7.20
2018-01-07T20:04:00.179Z,7.30
2018-01-07T20:06:30.370Z,7.20
2018-01-07T20:09:02.339Z,7.20
2018-01-07T20:11:33.384Z,7.20
2018-01-07T20:14:05.067Z,7.30
2018-01-07T20:16:37.557Z,7.20
2018-01-07T20:19:05.352Z,7.30
2018-01-07T20:21:34.369Z,7.30
2018-01-07T20:24:03.117Z,7.30
2018-01-07T20:26:30.867Z,7.30
2018-01-07T20:29:01.164Z,7.20
2018-01-07T20:31:29.168Z,7.20
2018-01-07T20:33:57.728Z,7.30
2018-01-07T20:36:27.012Z,7.30
2018-01-07T20:38:54.845Z,7.30
2018-01-07T20:41:23.952Z,7.30
2018-01-07T20:43:52.282Z,7.30
2018-01-07T20:46:21.054Z,7.30
2018-01-07T20:48:50.061Z,7.30
2018-01-07T20:51:18.754Z,7.30
2018-01-07T20:53:47.731Z,7.30
2018-01-07T20:56:15.672Z,7.30
2018-01-07T20:58:44.952Z,7.30
2018-01-07T21:01:14.349Z,7.30
2018-01-07T21:03:42.547Z,7.30
2018-01-07T21:06:11.290Z,7.30
2018-01-07T21:08:40.437Z,7.30
2018-01-07T21:11:08.612Z,7.30
2018-01-07T21:13:37.281Z,7.20
2018-01-07T21:16:06.325Z,7.20
2018-01-07T21:18:35.020Z,7.20
2018-01-07T21:21:03.490Z,7.20
2018-01-07T21:23:31.832Z,7.20
2018-01-07T21:25:59.765Z,7.20
2018-01-07T21:28:27.654Z,7.20
2018-01-07T21:30:55.331Z,7.20
2018-01-07T21:33:23.232Z,7.20
2018-01-07T21:35:51.828Z,7.20
2018-01-07T21:38:19.635Z,7.30
2018-01-07T21:40:47.642Z,7.30
2018-01-07T21:43:16.449Z,7.20
2018-01-07T21:45:44.098Z,7.20
2018-01-07T21:48:12.661Z,7.20
2018-01-07T21:50:40.484Z,7.20
2018-01-07T21:53:08.285Z,7.20
2018-01-07T21:55:36.130Z,7.20
2018-01-07T21:58:04.300Z,7.20
2018-01-07T22:00:44.073Z,7.20
2018-01-07T22:03:24.588Z,7.20
2018-01-07T22:05:55.749Z,7.20
2018-01-07T22:08:24.561Z,7.10
2018-01-07T22:10:53.186Z,7.20
2018-01-07T22:13:21.332Z,7.20
2018-01-07T22:15:50.118Z,7.20
2018-01-07T22:18:18.792Z,7.20
2018-01-07T22:20:46.846Z,7.20
2018-01-07T22:23:15.487Z,7.20
2018-01-07T22:25:44.525Z,7.20
2018-01-07T22:28:13.521Z,7.20
2018-01-07T22:30:41.246Z,7.20
2018-01-07T22:33:09.204Z,7.20
2018-01-07T22:35:37.101Z,7.20
2018-01-07T22:38:05.668Z,7.20
2018-01-07T22:40:34.589Z,7.20
2018-01-07T22:43:02.655Z,7.10
2018-01-07T22:45:31.736Z,7.20
2018-01-07T22:48:06.350Z,7.10
2018-01-07T22:50:35.341Z,7.10
2018-01-07T22:53:03.357Z,7.10
2018-01-07T22:55:31.230Z,7.10
2018-01-07T22:57:59.317Z,7.10
2018-01-07T23:00:27.869Z,7.10
2018-01-07T23:02:55.878Z,7.10
2018-01-07T23:05:23.676Z,7.10
2018-01-07T23:07:51.806Z,7.10
2018-01-07T23:10:20.464Z,7.20
2018-01-07T23:12:48.745Z,7.20
2018-01-07T23:15:18.763Z,7.10
2018-01-07T23:17:47.768Z,7.10
2018-01-07T23:20:16.439Z,7.10
2018-01-07T23:22:44.714Z,7.10
2018-01-07T23:25:12.443Z,7.10
2018-01-07T23:27:40.846Z,7.10
2018-01-07T23:30:08.750Z,7.10
2018-01-07T23:32:37.497Z,7.10
2018-01-07T23:35:06.190Z,7.10
2018-01-07T23:37:34.383Z,7.10
2018-01-07T23:40:03.085Z,7.10
2018-01-07T23:42:31.889Z,7.10
2018-01-07T23:45:00.100Z,7.10
2018-01-07T23:47:28.403Z,7.10
2018-01-07T23:49:56.728Z,7.10
2018-01-07T23:52:24.773Z,7.10
2018-01-07T23:54:52.903Z,7.10
2018-01-07T23:57:20.799Z,7.10
2018-01-07T23:59:49.821Z,7.10
